sensor_id;sensor_type;location;lat;lon;timestamp;P1;durP1;ratioP1;P2;durP2;ratioP2
66874;SDS011;53784;52.630;4.896;2023-07-31T00:00:52;5.32;;;1.15;;
66874;SDS011;53784;52.630;4.896;2023-07-31T00:03:17;6.20;;;1.20;;
66874;SDS011;53784;52.630;4.896;2023-07-31T00:05:43;3.13;;;0.88;;
66874;SDS011;53784;52.630;4.896;2023-07-31T00:08:08;7.68;;;1.02;;
66874;SDS011;53784;52.630;4.896;2023-07-31T00:10:33;7.45;;;1.05;;
66874;SDS011;53784;52.630;4.896;2023-07-31T00:12:59;4.97;;;0.90;;
66874;SDS011;53784;52.630;4.896;2023-07-31T00:15:24;4.70;;;1.00;;
66874;SDS011;53784;52.630;4.896;2023-07-31T00:17:49;5.28;;;0.90;;
66874;SDS011;53784;52.630;4.896;2023-07-31T00:20:15;5.70;;;1.10;;
66874;SDS011;53784;52.630;4.896;2023-07-31T00:22:40;5.47;;;1.10;;
66874;SDS011;53784;52.630;4.896;2023-07-31T00:25:05;5.72;;;0.98;;
66874;SDS011;53784;52.630;4.896;2023-07-31T00:27:31;6.60;;;1.08;;
66874;SDS011;53784;52.630;4.896;2023-07-31T00:29:57;6.68;;;1.42;;
66874;SDS011;53784;52.630;4.896;2023-07-31T00:32:22;7.40;;;1.70;;
66874;SDS011;53784;52.630;4.896;2023-07-31T00:34:47;7.93;;;2.10;;
66874;SDS011;53784;52.630;4.896;2023-07-31T00:37:13;7.72;;;2.13;;
66874;SDS011;53784;52.630;4.896;2023-07-31T00:39:38;12.63;;;2.67;;
66874;SDS011;53784;52.630;4.896;2023-07-31T00:42:03;10.95;;;2.83;;
66874;SDS011;53784;52.630;4.896;2023-07-31T00:44:29;10.45;;;2.75;;
66874;SDS011;53784;52.630;4.896;2023-07-31T00:46:54;11.15;;;2.70;;
66874;SDS011;53784;52.630;4.896;2023-07-31T00:49:21;11.80;;;3.10;;
66874;SDS011;53784;52.630;4.896;2023-07-31T00:51:47;12.43;;;2.90;;
66874;SDS011;53784;52.630;4.896;2023-07-31T00:54:12;11.45;;;2.80;;
66874;SDS011;53784;52.630;4.896;2023-07-31T00:56:38;9.57;;;2.67;;
66874;SDS011;53784;52.630;4.896;2023-07-31T00:59:05;9.23;;;2.70;;
66874;SDS011;53784;52.630;4.896;2023-07-31T01:01:30;10.95;;;2.78;;
66874;SDS011;53784;52.630;4.896;2023-07-31T01:03:56;12.50;;;2.97;;
66874;SDS011;53784;52.630;4.896;2023-07-31T01:06:31;11.90;;;2.85;;
66874;SDS011;53784;52.630;4.896;2023-07-31T01:09:03;9.82;;;2.63;;
66874;SDS011;53784;52.630;4.896;2023-07-31T01:11:39;10.15;;;2.72;;
66874;SDS011;53784;52.630;4.896;2023-07-31T01:14:08;9.85;;;2.65;;
66874;SDS011;53784;52.630;4.896;2023-07-31T01:16:33;10.90;;;2.80;;
66874;SDS011;53784;52.630;4.896;2023-07-31T01:18:59;10.95;;;2.90;;
66874;SDS011;53784;52.630;4.896;2023-07-31T01:29:49;12.38;;;3.58;;
66874;SDS011;53784;52.630;4.896;2023-07-31T01:32:20;11.27;;;3.33;;
66874;SDS011;53784;52.630;4.896;2023-07-31T01:34:47;11.50;;;3.70;;
66874;SDS011;53784;52.630;4.896;2023-07-31T01:37:13;15.02;;;3.55;;
66874;SDS011;53784;52.630;4.896;2023-07-31T01:39:39;11.65;;;3.20;;
66874;SDS011;53784;52.630;4.896;2023-07-31T01:42:04;11.90;;;3.33;;
66874;SDS011;53784;52.630;4.896;2023-07-31T01:44:29;12.43;;;3.58;;
66874;SDS011;53784;52.630;4.896;2023-07-31T01:46:55;12.45;;;3.50;;
66874;SDS011;53784;52.630;4.896;2023-07-31T01:49:21;11.93;;;3.63;;
66874;SDS011;53784;52.630;4.896;2023-07-31T01:51:46;14.25;;;3.47;;
66874;SDS011;53784;52.630;4.896;2023-07-31T01:54:11;13.82;;;3.60;;
66874;SDS011;53784;52.630;4.896;2023-07-31T01:56:36;13.43;;;3.42;;
66874;SDS011;53784;52.630;4.896;2023-07-31T01:59:02;11.38;;;3.60;;
66874;SDS011;53784;52.630;4.896;2023-07-31T02:01:27;19.90;;;3.90;;
66874;SDS011;53784;52.630;4.896;2023-07-31T02:03:52;17.90;;;3.88;;
66874;SDS011;53784;52.630;4.896;2023-07-31T02:06:19;14.30;;;3.90;;
66874;SDS011;53784;52.630;4.896;2023-07-31T02:08:44;19.73;;;4.43;;
66874;SDS011;53784;52.630;4.896;2023-07-31T02:11:09;15.13;;;4.15;;
66874;SDS011;53784;52.630;4.896;2023-07-31T02:13:35;11.25;;;3.13;;
66874;SDS011;53784;52.630;4.896;2023-07-31T02:16:00;11.23;;;3.08;;
66874;SDS011;53784;52.630;4.896;2023-07-31T02:18:26;9.57;;;3.13;;
66874;SDS011;53784;52.630;4.896;2023-07-31T02:20:51;8.93;;;2.85;;
66874;SDS011;53784;52.630;4.896;2023-07-31T02:23:17;9.45;;;2.85;;
66874;SDS011;53784;52.630;4.896;2023-07-31T02:25:43;8.82;;;2.63;;
66874;SDS011;53784;52.630;4.896;2023-07-31T02:28:09;12.35;;;3.33;;
66874;SDS011;53784;52.630;4.896;2023-07-31T02:30:34;16.67;;;4.20;;
66874;SDS011;53784;52.630;4.896;2023-07-31T02:32:59;16.85;;;4.93;;
66874;SDS011;53784;52.630;4.896;2023-07-31T02:35:25;19.10;;;4.85;;
66874;SDS011;53784;52.630;4.896;2023-07-31T02:37:50;22.73;;;5.18;;
66874;SDS011;53784;52.630;4.896;2023-07-31T02:40:15;20.77;;;5.50;;
66874;SDS011;53784;52.630;4.896;2023-07-31T02:42:40;22.98;;;5.10;;
66874;SDS011;53784;52.630;4.896;2023-07-31T02:45:06;20.92;;;5.38;;
66874;SDS011;53784;52.630;4.896;2023-07-31T02:47:32;24.85;;;4.88;;
66874;SDS011;53784;52.630;4.896;2023-07-31T02:49:57;18.13;;;5.20;;
66874;SDS011;53784;52.630;4.896;2023-07-31T02:52:22;25.20;;;5.55;;
66874;SDS011;53784;52.630;4.896;2023-07-31T02:54:48;15.10;;;4.40;;
66874;SDS011;53784;52.630;4.896;2023-07-31T02:57:13;18.98;;;4.82;;
66874;SDS011;53784;52.630;4.896;2023-07-31T02:59:38;21.63;;;4.50;;
66874;SDS011;53784;52.630;4.896;2023-07-31T03:02:04;15.70;;;4.47;;
66874;SDS011;53784;52.630;4.896;2023-07-31T03:04:29;19.75;;;4.53;;
66874;SDS011;53784;52.630;4.896;2023-07-31T03:06:54;22.13;;;5.15;;
66874;SDS011;53784;52.630;4.896;2023-07-31T03:09:20;23.92;;;5.68;;
66874;SDS011;53784;52.630;4.896;2023-07-31T03:11:45;20.42;;;4.90;;
66874;SDS011;53784;52.630;4.896;2023-07-31T03:14:10;16.50;;;4.13;;
66874;SDS011;53784;52.630;4.896;2023-07-31T03:16:35;23.35;;;5.20;;
66874;SDS011;53784;52.630;4.896;2023-07-31T03:19:01;22.05;;;5.10;;
66874;SDS011;53784;52.630;4.896;2023-07-31T03:21:26;16.70;;;4.75;;
66874;SDS011;53784;52.630;4.896;2023-07-31T03:23:51;17.38;;;4.55;;
66874;SDS011;53784;52.630;4.896;2023-07-31T03:26:17;21.45;;;4.60;;
66874;SDS011;53784;52.630;4.896;2023-07-31T03:28:42;26.17;;;4.78;;
66874;SDS011;53784;52.630;4.896;2023-07-31T03:31:07;19.73;;;4.68;;
66874;SDS011;53784;52.630;4.896;2023-07-31T03:33:33;19.05;;;4.40;;
66874;SDS011;53784;52.630;4.896;2023-07-31T03:35:58;20.80;;;4.70;;
66874;SDS011;53784;52.630;4.896;2023-07-31T03:38:24;18.83;;;5.13;;
66874;SDS011;53784;52.630;4.896;2023-07-31T03:40:49;16.50;;;4.47;;
66874;SDS011;53784;52.630;4.896;2023-07-31T03:43:14;16.80;;;4.10;;
66874;SDS011;53784;52.630;4.896;2023-07-31T03:45:40;18.08;;;4.30;;
66874;SDS011;53784;52.630;4.896;2023-07-31T03:48:05;24.02;;;5.03;;
66874;SDS011;53784;52.630;4.896;2023-07-31T03:50:32;20.30;;;4.47;;
66874;SDS011;53784;52.630;4.896;2023-07-31T03:52:58;18.35;;;5.00;;
66874;SDS011;53784;52.630;4.896;2023-07-31T03:55:23;16.90;;;4.60;;
66874;SDS011;53784;52.630;4.896;2023-07-31T03:57:48;22.02;;;4.95;;
66874;SDS011;53784;52.630;4.896;2023-07-31T04:00:13;16.15;;;4.50;;
66874;SDS011;53784;52.630;4.896;2023-07-31T04:02:39;14.57;;;4.35;;
66874;SDS011;53784;52.630;4.896;2023-07-31T04:05:04;23.35;;;4.95;;
66874;SDS011;53784;52.630;4.896;2023-07-31T04:07:30;21.65;;;4.60;;
66874;SDS011;53784;52.630;4.896;2023-07-31T04:09:57;17.52;;;4.38;;
66874;SDS011;53784;52.630;4.896;2023-07-31T04:12:22;18.58;;;4.80;;
66874;SDS011;53784;52.630;4.896;2023-07-31T04:14:47;17.98;;;4.53;;
66874;SDS011;53784;52.630;4.896;2023-07-31T04:17:12;17.40;;;4.20;;
66874;SDS011;53784;52.630;4.896;2023-07-31T04:19:38;21.20;;;4.95;;
66874;SDS011;53784;52.630;4.896;2023-07-31T04:22:03;16.90;;;4.32;;
66874;SDS011;53784;52.630;4.896;2023-07-31T04:24:29;21.60;;;4.80;;
66874;SDS011;53784;52.630;4.896;2023-07-31T04:26:54;17.45;;;3.95;;
66874;SDS011;53784;52.630;4.896;2023-07-31T04:29:19;14.60;;;4.13;;
66874;SDS011;53784;52.630;4.896;2023-07-31T04:31:45;16.90;;;4.18;;
66874;SDS011;53784;52.630;4.896;2023-07-31T04:34:10;15.05;;;3.97;;
66874;SDS011;53784;52.630;4.896;2023-07-31T04:36:36;17.52;;;4.25;;
66874;SDS011;53784;52.630;4.896;2023-07-31T04:39:02;14.30;;;4.18;;
66874;SDS011;53784;52.630;4.896;2023-07-31T04:41:27;13.13;;;3.85;;
66874;SDS011;53784;52.630;4.896;2023-07-31T04:43:53;14.80;;;3.85;;
66874;SDS011;53784;52.630;4.896;2023-07-31T04:46:18;16.50;;;4.28;;
66874;SDS011;53784;52.630;4.896;2023-07-31T04:48:43;17.98;;;4.30;;
66874;SDS011;53784;52.630;4.896;2023-07-31T04:51:08;19.40;;;4.07;;
66874;SDS011;53784;52.630;4.896;2023-07-31T04:53:34;18.25;;;4.85;;
66874;SDS011;53784;52.630;4.896;2023-07-31T04:56:00;19.23;;;4.10;;
66874;SDS011;53784;52.630;4.896;2023-07-31T04:58:25;13.65;;;3.45;;
66874;SDS011;53784;52.630;4.896;2023-07-31T05:00:50;15.65;;;3.33;;
66874;SDS011;53784;52.630;4.896;2023-07-31T05:03:16;8.73;;;2.67;;
66874;SDS011;53784;52.630;4.896;2023-07-31T05:05:41;6.22;;;2.08;;
66874;SDS011;53784;52.630;4.896;2023-07-31T05:08:06;6.03;;;1.73;;
66874;SDS011;53784;52.630;4.896;2023-07-31T05:10:32;6.45;;;1.85;;
66874;SDS011;53784;52.630;4.896;2023-07-31T05:12:57;5.93;;;1.80;;
66874;SDS011;53784;52.630;4.896;2023-07-31T05:15:22;6.00;;;1.73;;
66874;SDS011;53784;52.630;4.896;2023-07-31T05:17:48;6.78;;;1.80;;
66874;SDS011;53784;52.630;4.896;2023-07-31T05:20:13;4.90;;;1.60;;
66874;SDS011;53784;52.630;4.896;2023-07-31T05:22:39;6.55;;;1.90;;
66874;SDS011;53784;52.630;4.896;2023-07-31T05:25:05;6.20;;;1.92;;
66874;SDS011;53784;52.630;4.896;2023-07-31T05:27:30;7.00;;;1.90;;
66874;SDS011;53784;52.630;4.896;2023-07-31T05:29:56;5.05;;;1.70;;
66874;SDS011;53784;52.630;4.896;2023-07-31T05:32:21;5.72;;;1.55;;
66874;SDS011;53784;52.630;4.896;2023-07-31T05:34:46;5.80;;;1.23;;
66874;SDS011;53784;52.630;4.896;2023-07-31T05:37:12;5.22;;;1.23;;
66874;SDS011;53784;52.630;4.896;2023-07-31T05:39:38;3.42;;;0.93;;
66874;SDS011;53784;52.630;4.896;2023-07-31T05:42:04;3.63;;;0.90;;
66874;SDS011;53784;52.630;4.896;2023-07-31T05:44:29;5.38;;;1.23;;
66874;SDS011;53784;52.630;4.896;2023-07-31T05:46:55;3.97;;;0.82;;
66874;SDS011;53784;52.630;4.896;2023-07-31T05:49:20;4.00;;;0.80;;
66874;SDS011;53784;52.630;4.896;2023-07-31T05:51:45;4.25;;;0.70;;
66874;SDS011;53784;52.630;4.896;2023-07-31T05:54:11;3.28;;;0.60;;
66874;SDS011;53784;52.630;4.896;2023-07-31T05:56:36;3.42;;;0.70;;
66874;SDS011;53784;52.630;4.896;2023-07-31T05:59:01;4.10;;;0.85;;
66874;SDS011;53784;52.630;4.896;2023-07-31T06:01:27;5.90;;;0.77;;
66874;SDS011;53784;52.630;4.896;2023-07-31T06:03:53;2.17;;;0.60;;
66874;SDS011;53784;52.630;4.896;2023-07-31T06:06:18;3.83;;;0.77;;
66874;SDS011;53784;52.630;4.896;2023-07-31T06:08:43;3.80;;;0.80;;
66874;SDS011;53784;52.630;4.896;2023-07-31T06:11:09;3.15;;;0.90;;
66874;SDS011;53784;52.630;4.896;2023-07-31T06:13:34;3.75;;;0.95;;
66874;SDS011;53784;52.630;4.896;2023-07-31T06:16:00;4.03;;;0.88;;
66874;SDS011;53784;52.630;4.896;2023-07-31T06:18:27;4.93;;;1.20;;
66874;SDS011;53784;52.630;4.896;2023-07-31T06:20:53;5.55;;;1.25;;
66874;SDS011;53784;52.630;4.896;2023-07-31T06:23:19;8.23;;;1.40;;
66874;SDS011;53784;52.630;4.896;2023-07-31T06:25:45;5.15;;;1.23;;
66874;SDS011;53784;52.630;4.896;2023-07-31T06:28:10;5.07;;;1.35;;
66874;SDS011;53784;52.630;4.896;2023-07-31T06:30:36;7.53;;;1.63;;
66874;SDS011;53784;52.630;4.896;2023-07-31T06:33:01;8.00;;;1.77;;
66874;SDS011;53784;52.630;4.896;2023-07-31T06:35:26;8.32;;;1.80;;
66874;SDS011;53784;52.630;4.896;2023-07-31T06:37:52;6.32;;;1.67;;
66874;SDS011;53784;52.630;4.896;2023-07-31T06:40:17;7.82;;;1.73;;
66874;SDS011;53784;52.630;4.896;2023-07-31T06:42:42;8.27;;;1.70;;
66874;SDS011;53784;52.630;4.896;2023-07-31T06:45:08;10.52;;;1.67;;
66874;SDS011;53784;52.630;4.896;2023-07-31T06:47:33;9.30;;;1.60;;
66874;SDS011;53784;52.630;4.896;2023-07-31T06:49:59;7.22;;;1.48;;
66874;SDS011;53784;52.630;4.896;2023-07-31T06:52:24;7.32;;;1.88;;
66874;SDS011;53784;52.630;4.896;2023-07-31T06:55:03;7.65;;;1.50;;
66874;SDS011;53784;52.630;4.896;2023-07-31T06:57:39;9.15;;;1.70;;
66874;SDS011;53784;52.630;4.896;2023-07-31T07:00:04;7.30;;;1.75;;
66874;SDS011;53784;52.630;4.896;2023-07-31T07:02:30;11.10;;;1.70;;
66874;SDS011;53784;52.630;4.896;2023-07-31T07:04:55;7.65;;;1.67;;
66874;SDS011;53784;52.630;4.896;2023-07-31T07:07:21;8.75;;;1.77;;
66874;SDS011;53784;52.630;4.896;2023-07-31T07:09:46;7.40;;;1.65;;
66874;SDS011;53784;52.630;4.896;2023-07-31T07:12:12;7.90;;;1.70;;
66874;SDS011;53784;52.630;4.896;2023-07-31T07:14:37;9.23;;;1.50;;
66874;SDS011;53784;52.630;4.896;2023-07-31T07:17:02;7.82;;;1.70;;
66874;SDS011;53784;52.630;4.896;2023-07-31T07:19:28;5.57;;;1.40;;
66874;SDS011;53784;52.630;4.896;2023-07-31T07:21:54;7.93;;;1.30;;
66874;SDS011;53784;52.630;4.896;2023-07-31T07:24:19;10.13;;;1.80;;
66874;SDS011;53784;52.630;4.896;2023-07-31T07:26:44;7.05;;;1.42;;
66874;SDS011;53784;52.630;4.896;2023-07-31T07:29:10;8.40;;;1.30;;
66874;SDS011;53784;52.630;4.896;2023-07-31T07:31:35;8.45;;;1.40;;
66874;SDS011;53784;52.630;4.896;2023-07-31T07:34:01;5.47;;;1.20;;
66874;SDS011;53784;52.630;4.896;2023-07-31T07:36:27;4.15;;;1.10;;
66874;SDS011;53784;52.630;4.896;2023-07-31T07:38:53;4.72;;;1.00;;
66874;SDS011;53784;52.630;4.896;2023-07-31T07:41:18;4.70;;;0.95;;
66874;SDS011;53784;52.630;4.896;2023-07-31T07:43:43;4.13;;;0.95;;
66874;SDS011;53784;52.630;4.896;2023-07-31T07:46:09;6.20;;;1.00;;
66874;SDS011;53784;52.630;4.896;2023-07-31T07:48:34;3.90;;;1.10;;
66874;SDS011;53784;52.630;4.896;2023-07-31T07:50:59;5.30;;;1.25;;
66874;SDS011;53784;52.630;4.896;2023-07-31T07:53:24;7.57;;;1.40;;
66874;SDS011;53784;52.630;4.896;2023-07-31T07:55:50;9.15;;;1.80;;
66874;SDS011;53784;52.630;4.896;2023-07-31T07:58:15;6.43;;;1.40;;
66874;SDS011;53784;52.630;4.896;2023-07-31T08:00:40;6.32;;;1.50;;
66874;SDS011;53784;52.630;4.896;2023-07-31T08:03:06;9.45;;;1.55;;
66874;SDS011;53784;52.630;4.896;2023-07-31T08:05:31;6.47;;;1.60;;
66874;SDS011;53784;52.630;4.896;2023-07-31T08:07:59;9.25;;;1.58;;
66874;SDS011;53784;52.630;4.896;2023-07-31T08:10:24;7.50;;;1.67;;
66874;SDS011;53784;52.630;4.896;2023-07-31T08:12:49;6.65;;;1.52;;
66874;SDS011;53784;52.630;4.896;2023-07-31T08:15:15;5.97;;;1.40;;
66874;SDS011;53784;52.630;4.896;2023-07-31T08:17:40;5.97;;;1.30;;
66874;SDS011;53784;52.630;4.896;2023-07-31T08:20:06;6.95;;;1.20;;
66874;SDS011;53784;52.630;4.896;2023-07-31T08:22:31;6.55;;;1.50;;
66874;SDS011;53784;52.630;4.896;2023-07-31T08:24:57;8.35;;;1.80;;
66874;SDS011;53784;52.630;4.896;2023-07-31T08:27:22;6.03;;;1.60;;
66874;SDS011;53784;52.630;4.896;2023-07-31T08:29:47;6.40;;;1.65;;
66874;SDS011;53784;52.630;4.896;2023-07-31T08:32:13;12.23;;;2.10;;
66874;SDS011;53784;52.630;4.896;2023-07-31T08:34:38;9.45;;;1.80;;
66874;SDS011;53784;52.630;4.896;2023-07-31T08:37:03;10.20;;;1.90;;
66874;SDS011;53784;52.630;4.896;2023-07-31T08:39:29;8.73;;;1.95;;
66874;SDS011;53784;52.630;4.896;2023-07-31T08:41:58;9.20;;;2.10;;
66874;SDS011;53784;52.630;4.896;2023-07-31T08:44:24;7.88;;;1.67;;
66874;SDS011;53784;52.630;4.896;2023-07-31T08:46:50;9.95;;;2.20;;
66874;SDS011;53784;52.630;4.896;2023-07-31T08:49:15;8.80;;;1.70;;
66874;SDS011;53784;52.630;4.896;2023-07-31T08:51:42;8.80;;;1.90;;
66874;SDS011;53784;52.630;4.896;2023-07-31T08:54:08;9.75;;;1.80;;
66874;SDS011;53784;52.630;4.896;2023-07-31T08:56:33;9.02;;;2.05;;
66874;SDS011;53784;52.630;4.896;2023-07-31T08:59:00;12.80;;;1.80;;
66874;SDS011;53784;52.630;4.896;2023-07-31T09:01:28;8.55;;;1.67;;
66874;SDS011;53784;52.630;4.896;2023-07-31T09:03:54;10.05;;;1.92;;
66874;SDS011;53784;52.630;4.896;2023-07-31T09:06:20;9.00;;;1.75;;
66874;SDS011;53784;52.630;4.896;2023-07-31T09:08:47;6.38;;;1.70;;
66874;SDS011;53784;52.630;4.896;2023-07-31T09:11:14;6.70;;;1.60;;
66874;SDS011;53784;52.630;4.896;2023-07-31T09:13:39;8.02;;;1.70;;
66874;SDS011;53784;52.630;4.896;2023-07-31T09:16:05;6.15;;;1.50;;
66874;SDS011;53784;52.630;4.896;2023-07-31T09:18:30;6.63;;;1.60;;
66874;SDS011;53784;52.630;4.896;2023-07-31T09:21:02;8.60;;;1.60;;
66874;SDS011;53784;52.630;4.896;2023-07-31T09:23:40;7.50;;;1.70;;
66874;SDS011;53784;52.630;4.896;2023-07-31T09:26:07;7.43;;;1.83;;
66874;SDS011;53784;52.630;4.896;2023-07-31T09:28:32;6.03;;;1.52;;
66874;SDS011;53784;52.630;4.896;2023-07-31T09:30:58;9.57;;;1.70;;
66874;SDS011;53784;52.630;4.896;2023-07-31T09:33:23;10.00;;;1.83;;
66874;SDS011;53784;52.630;4.896;2023-07-31T09:35:48;9.20;;;1.92;;
66874;SDS011;53784;52.630;4.896;2023-07-31T09:38:14;7.38;;;1.67;;
66874;SDS011;53784;52.630;4.896;2023-07-31T09:40:41;7.65;;;1.70;;
66874;SDS011;53784;52.630;4.896;2023-07-31T09:43:08;10.63;;;2.03;;
66874;SDS011;53784;52.630;4.896;2023-07-31T09:45:41;8.83;;;1.60;;
66874;SDS011;53784;52.630;4.896;2023-07-31T09:48:08;6.95;;;1.80;;
66874;SDS011;53784;52.630;4.896;2023-07-31T09:50:34;8.27;;;1.77;;
66874;SDS011;53784;52.630;4.896;2023-07-31T09:53:02;8.50;;;1.70;;
66874;SDS011;53784;52.630;4.896;2023-07-31T09:55:27;12.50;;;1.70;;
66874;SDS011;53784;52.630;4.896;2023-07-31T09:57:53;8.38;;;1.52;;
66874;SDS011;53784;52.630;4.896;2023-07-31T10:00:20;7.18;;;1.52;;
66874;SDS011;53784;52.630;4.896;2023-07-31T10:02:47;8.05;;;1.70;;
66874;SDS011;53784;52.630;4.896;2023-07-31T10:05:14;11.32;;;1.95;;
66874;SDS011;53784;52.630;4.896;2023-07-31T10:07:41;10.07;;;2.00;;
66874;SDS011;53784;52.630;4.896;2023-07-31T10:10:08;8.60;;;1.98;;
66874;SDS011;53784;52.630;4.896;2023-07-31T10:12:34;8.65;;;1.60;;
66874;SDS011;53784;52.630;4.896;2023-07-31T10:15:00;11.13;;;1.85;;
66874;SDS011;53784;52.630;4.896;2023-07-31T10:17:27;7.38;;;1.75;;
66874;SDS011;53784;52.630;4.896;2023-07-31T10:19:54;7.05;;;1.70;;
66874;SDS011;53784;52.630;4.896;2023-07-31T10:22:20;5.85;;;1.50;;
66874;SDS011;53784;52.630;4.896;2023-07-31T10:24:46;8.48;;;1.67;;
66874;SDS011;53784;52.630;4.896;2023-07-31T10:27:11;7.07;;;1.67;;
66874;SDS011;53784;52.630;4.896;2023-07-31T10:29:37;7.00;;;1.60;;
66874;SDS011;53784;52.630;4.896;2023-07-31T10:32:04;8.30;;;1.85;;
66874;SDS011;53784;52.630;4.896;2023-07-31T10:34:35;9.20;;;1.90;;
66874;SDS011;53784;52.630;4.896;2023-07-31T10:37:20;8.40;;;1.92;;
66874;SDS011;53784;52.630;4.896;2023-07-31T10:40:11;11.68;;;2.08;;
66874;SDS011;53784;52.630;4.896;2023-07-31T10:42:38;9.55;;;1.85;;
66874;SDS011;53784;52.630;4.896;2023-07-31T10:45:10;9.73;;;1.90;;
66874;SDS011;53784;52.630;4.896;2023-07-31T10:47:42;9.95;;;1.67;;
66874;SDS011;53784;52.630;4.896;2023-07-31T10:52:38;7.95;;;1.73;;
66874;SDS011;53784;52.630;4.896;2023-07-31T10:55:16;9.43;;;1.65;;
66874;SDS011;53784;52.630;4.896;2023-07-31T10:57:49;6.90;;;1.67;;
66874;SDS011;53784;52.630;4.896;2023-07-31T11:00:18;8.55;;;1.80;;
66874;SDS011;53784;52.630;4.896;2023-07-31T11:02:57;8.10;;;1.90;;
66874;SDS011;53784;52.630;4.896;2023-07-31T11:08:24;8.07;;;1.40;;
66874;SDS011;53784;52.630;4.896;2023-07-31T11:15:56;9.48;;;1.70;;
66874;SDS011;53784;52.630;4.896;2023-07-31T11:18:21;8.20;;;2.08;;
66874;SDS011;53784;52.630;4.896;2023-07-31T11:20:47;6.80;;;1.50;;
66874;SDS011;53784;52.630;4.896;2023-07-31T11:23:12;8.63;;;1.73;;
66874;SDS011;53784;52.630;4.896;2023-07-31T11:25:38;8.63;;;1.70;;
66874;SDS011;53784;52.630;4.896;2023-07-31T11:28:10;5.50;;;1.60;;
66874;SDS011;53784;52.630;4.896;2023-07-31T11:30:36;8.45;;;2.00;;
66874;SDS011;53784;52.630;4.896;2023-07-31T11:33:03;7.20;;;1.77;;
66874;SDS011;53784;52.630;4.896;2023-07-31T11:35:32;8.35;;;1.63;;
66874;SDS011;53784;52.630;4.896;2023-07-31T11:37:58;7.77;;;1.73;;
66874;SDS011;53784;52.630;4.896;2023-07-31T11:40:23;6.30;;;1.58;;
66874;SDS011;53784;52.630;4.896;2023-07-31T11:42:54;7.90;;;2.22;;
66874;SDS011;53784;52.630;4.896;2023-07-31T11:45:24;9.38;;;1.90;;
66874;SDS011;53784;52.630;4.896;2023-07-31T11:47:50;9.32;;;2.08;;
66874;SDS011;53784;52.630;4.896;2023-07-31T11:50:16;7.65;;;2.00;;
66874;SDS011;53784;52.630;4.896;2023-07-31T11:52:42;8.00;;;2.28;;
66874;SDS011;53784;52.630;4.896;2023-07-31T11:55:08;9.93;;;2.20;;
66874;SDS011;53784;52.630;4.896;2023-07-31T11:57:37;7.90;;;2.13;;
66874;SDS011;53784;52.630;4.896;2023-07-31T12:00:05;7.80;;;2.20;;
66874;SDS011;53784;52.630;4.896;2023-07-31T12:02:32;8.93;;;1.90;;
66874;SDS011;53784;52.630;4.896;2023-07-31T12:04:57;10.90;;;2.40;;
66874;SDS011;53784;52.630;4.896;2023-07-31T12:07:23;7.40;;;2.05;;
66874;SDS011;53784;52.630;4.896;2023-07-31T12:09:53;7.60;;;2.00;;
66874;SDS011;53784;52.630;4.896;2023-07-31T12:12:19;8.25;;;1.92;;
66874;SDS011;53784;52.630;4.896;2023-07-31T12:14:48;9.48;;;2.20;;
66874;SDS011;53784;52.630;4.896;2023-07-31T12:17:13;11.90;;;1.88;;
66874;SDS011;53784;52.630;4.896;2023-07-31T12:19:39;7.75;;;2.13;;
66874;SDS011;53784;52.630;4.896;2023-07-31T12:22:14;11.85;;;2.25;;
66874;SDS011;53784;52.630;4.896;2023-07-31T12:24:40;8.30;;;2.17;;
66874;SDS011;53784;52.630;4.896;2023-07-31T12:27:10;7.22;;;1.95;;
66874;SDS011;53784;52.630;4.896;2023-07-31T12:29:40;8.70;;;1.90;;
66874;SDS011;53784;52.630;4.896;2023-07-31T12:32:20;11.45;;;2.10;;
66874;SDS011;53784;52.630;4.896;2023-07-31T12:34:49;8.98;;;2.15;;
66874;SDS011;53784;52.630;4.896;2023-07-31T12:37:14;7.97;;;1.85;;
66874;SDS011;53784;52.630;4.896;2023-07-31T12:39:39;8.27;;;2.20;;
66874;SDS011;53784;52.630;4.896;2023-07-31T12:42:05;8.35;;;2.00;;
66874;SDS011;53784;52.630;4.896;2023-07-31T12:44:31;9.38;;;1.85;;
66874;SDS011;53784;52.630;4.896;2023-07-31T12:46:56;9.90;;;1.98;;
66874;SDS011;53784;52.630;4.896;2023-07-31T12:49:22;8.80;;;2.10;;
66874;SDS011;53784;52.630;4.896;2023-07-31T12:51:47;11.73;;;2.10;;
66874;SDS011;53784;52.630;4.896;2023-07-31T12:54:12;9.60;;;2.20;;
66874;SDS011;53784;52.630;4.896;2023-07-31T12:56:38;8.13;;;2.10;;
66874;SDS011;53784;52.630;4.896;2023-07-31T12:59:04;8.52;;;1.80;;
66874;SDS011;53784;52.630;4.896;2023-07-31T13:01:30;8.05;;;1.85;;
66874;SDS011;53784;52.630;4.896;2023-07-31T13:03:55;7.45;;;2.15;;
66874;SDS011;53784;52.630;4.896;2023-07-31T13:06:20;8.05;;;2.08;;
66874;SDS011;53784;52.630;4.896;2023-07-31T13:08:46;9.10;;;2.00;;
66874;SDS011;53784;52.630;4.896;2023-07-31T13:11:11;6.53;;;1.77;;
66874;SDS011;53784;52.630;4.896;2023-07-31T13:13:36;8.02;;;1.50;;
66874;SDS011;53784;52.630;4.896;2023-07-31T13:16:02;9.75;;;1.80;;
66874;SDS011;53784;52.630;4.896;2023-07-31T13:18:27;8.25;;;1.60;;
66874;SDS011;53784;52.630;4.896;2023-07-31T13:20:52;10.05;;;1.95;;
66874;SDS011;53784;52.630;4.896;2023-07-31T13:23:18;26.75;;;5.18;;
66874;SDS011;53784;52.630;4.896;2023-07-31T13:25:43;7.75;;;1.63;;
66874;SDS011;53784;52.630;4.896;2023-07-31T13:28:08;8.68;;;1.70;;
66874;SDS011;53784;52.630;4.896;2023-07-31T13:30:34;6.38;;;1.73;;
66874;SDS011;53784;52.630;4.896;2023-07-31T13:32:59;8.18;;;1.90;;
66874;SDS011;53784;52.630;4.896;2023-07-31T13:35:24;9.02;;;1.88;;
66874;SDS011;53784;52.630;4.896;2023-07-31T13:37:50;6.22;;;1.90;;
66874;SDS011;53784;52.630;4.896;2023-07-31T13:40:15;8.25;;;2.15;;
66874;SDS011;53784;52.630;4.896;2023-07-31T13:42:40;8.38;;;1.60;;
66874;SDS011;53784;52.630;4.896;2023-07-31T13:45:06;7.60;;;1.67;;
66874;SDS011;53784;52.630;4.896;2023-07-31T13:47:31;5.47;;;1.42;;
66874;SDS011;53784;52.630;4.896;2023-07-31T13:49:57;6.75;;;1.73;;
66874;SDS011;53784;52.630;4.896;2023-07-31T13:52:22;9.00;;;1.83;;
66874;SDS011;53784;52.630;4.896;2023-07-31T13:54:47;6.95;;;1.60;;
66874;SDS011;53784;52.630;4.896;2023-07-31T13:57:13;7.30;;;1.60;;
66874;SDS011;53784;52.630;4.896;2023-07-31T13:59:38;7.53;;;1.63;;
66874;SDS011;53784;52.630;4.896;2023-07-31T14:02:03;6.75;;;1.42;;
66874;SDS011;53784;52.630;4.896;2023-07-31T14:04:29;6.18;;;1.27;;
66874;SDS011;53784;52.630;4.896;2023-07-31T14:06:55;5.85;;;1.17;;
66874;SDS011;53784;52.630;4.896;2023-07-31T14:09:21;6.90;;;1.58;;
66874;SDS011;53784;52.630;4.896;2023-07-31T14:11:46;5.97;;;1.27;;
66874;SDS011;53784;52.630;4.896;2023-07-31T14:14:11;5.03;;;1.20;;
66874;SDS011;53784;52.630;4.896;2023-07-31T14:16:37;5.80;;;1.20;;
66874;SDS011;53784;52.630;4.896;2023-07-31T14:19:02;4.00;;;1.20;;
66874;SDS011;53784;52.630;4.896;2023-07-31T14:21:28;5.72;;;1.30;;
66874;SDS011;53784;52.630;4.896;2023-07-31T14:23:53;7.78;;;1.35;;
66874;SDS011;53784;52.630;4.896;2023-07-31T14:26:18;5.82;;;1.50;;
66874;SDS011;53784;52.630;4.896;2023-07-31T14:28:44;6.18;;;1.48;;
66874;SDS011;53784;52.630;4.896;2023-07-31T14:31:09;7.95;;;1.52;;
66874;SDS011;53784;52.630;4.896;2023-07-31T14:33:34;7.43;;;1.80;;
66874;SDS011;53784;52.630;4.896;2023-07-31T14:36:00;9.55;;;1.88;;
66874;SDS011;53784;52.630;4.896;2023-07-31T14:38:25;8.38;;;1.80;;
66874;SDS011;53784;52.630;4.896;2023-07-31T14:40:51;7.38;;;1.80;;
66874;SDS011;53784;52.630;4.896;2023-07-31T14:43:16;10.70;;;1.98;;
66874;SDS011;53784;52.630;4.896;2023-07-31T14:45:41;6.88;;;2.10;;
66874;SDS011;53784;52.630;4.896;2023-07-31T14:48:07;8.77;;;1.98;;
66874;SDS011;53784;52.630;4.896;2023-07-31T14:50:32;8.25;;;1.98;;
66874;SDS011;53784;52.630;4.896;2023-07-31T14:52:57;5.85;;;1.90;;
66874;SDS011;53784;52.630;4.896;2023-07-31T14:55:23;7.85;;;1.92;;